sensor_id;sensor_type;location;lat;lon;timestamp;temperature;humidity
24217;DHT22;12356;49.386;8.688;2023-08-08T00:02:07;16.20;28.40
24217;DHT22;12356;49.386;8.688;2023-08-08T00:04:38;16.10;29.10
24217;DHT22;12356;49.386;8.688;2023-08-08T00:07:08;16.10;29.10
24217;DHT22;12356;49.386;8.688;2023-08-08T00:09:39;16.10;29.00
24217;DHT22;12356;49.386;8.688;2023-08-08T00:12:10;16.00;29.20
24217;DHT22;12356;49.386;8.688;2023-08-08T00:14:41;16.00;29.20
24217;DHT22;12356;49.386;8.688;2023-08-08T00:17:12;16.00;29.20
24217;DHT22;12356;49.386;8.688;2023-08-08T00:19:42;16.00;29.20
24217;DHT22;12356;49.386;8.688;2023-08-08T00:22:13;16.10;29.80
24217;DHT22;12356;49.386;8.688;2023-08-08T00:24:44;16.10;30.30
24217;DHT22;12356;49.386;8.688;2023-08-08T00:27:14;16.10;30.00
24217;DHT22;12356;49.386;8.688;2023-08-08T00:29:45;16.10;29.90
24217;DHT22;12356;49.386;8.688;2023-08-08T00:32:16;16.10;31.00
24217;DHT22;12356;49.386;8.688;2023-08-08T00:34:46;16.10;30.80
24217;DHT22;12356;49.386;8.688;2023-08-08T00:37:17;16.00;29.30
24217;DHT22;12356;49.386;8.688;2023-08-08T00:39:48;16.10;29.30
24217;DHT22;12356;49.386;8.688;2023-08-08T00:42:18;16.10;30.30
24217;DHT22;12356;49.386;8.688;2023-08-08T00:44:49;16.10;30.60
24217;DHT22;12356;49.386;8.688;2023-08-08T00:47:19;16.20;30.00
24217;DHT22;12356;49.386;8.688;2023-08-08T00:49:50;16.10;29.60
24217;DHT22;12356;49.386;8.688;2023-08-08T00:52:20;16.10;29.30
24217;DHT22;12356;49.386;8.688;2023-08-08T00:54:52;16.20;29.40
24217;DHT22;12356;49.386;8.688;2023-08-08T00:57:23;16.20;30.60
24217;DHT22;12356;49.386;8.688;2023-08-08T00:59:54;16.10;30.40
24217;DHT22;12356;49.386;8.688;2023-08-08T01:02:24;16.10;30.50
24217;DHT22;12356;49.386;8.688;2023-08-08T01:04:55;16.10;29.60
24217;DHT22;12356;49.386;8.688;2023-08-08T01:07:33;16.10;29.30
24217;DHT22;12356;49.386;8.688;2023-08-08T01:10:09;16.10;29.30
24217;DHT22;12356;49.386;8.688;2023-08-08T01:12:51;16.10;29.30
24217;DHT22;12356;49.386;8.688;2023-08-08T01:15:23;16.10;29.50
24217;DHT22;12356;49.386;8.688;2023-08-08T01:17:55;16.10;30.10
24217;DHT22;12356;49.386;8.688;2023-08-08T01:20:26;16.10;30.50
24217;DHT22;12356;49.386;8.688;2023-08-08T01:23:10;16.10;29.90
24217;DHT22;12356;49.386;8.688;2023-08-08T01:25:44;16.10;30.00
24217;DHT22;12356;49.386;8.688;2023-08-08T01:28:15;16.00;30.60
24217;DHT22;12356;49.386;8.688;2023-08-08T01:30:45;16.00;31.10
24217;DHT22;12356;49.386;8.688;2023-08-08T01:33:16;16.00;31.70
24217;DHT22;12356;49.386;8.688;2023-08-08T01:35:53;15.90;32.10
24217;DHT22;12356;49.386;8.688;2023-08-08T01:38:32;15.90;32.10
24217;DHT22;12356;49.386;8.688;2023-08-08T01:41:04;15.90;31.50
24217;DHT22;12356;49.386;8.688;2023-08-08T01:43:39;15.90;32.50
24217;DHT22;12356;49.386;8.688;2023-08-08T01:46:11;15.80;31.70
24217;DHT22;12356;49.386;8.688;2023-08-08T01:48:45;15.80;32.30
24217;DHT22;12356;49.386;8.688;2023-08-08T01:51:16;15.90;32.50
24217;DHT22;12356;49.386;8.688;2023-08-08T01:53:46;15.90;32.10
24217;DHT22;12356;49.386;8.688;2023-08-08T01:56:17;15.80;31.80
24217;DHT22;12356;49.386;8.688;2023-08-08T01:58:47;15.80;32.30
24217;DHT22;12356;49.386;8.688;2023-08-08T02:01:18;15.80;32.90
24217;DHT22;12356;49.386;8.688;2023-08-08T02:03:48;15.90;33.40
24217;DHT22;12356;49.386;8.688;2023-08-08T02:06:19;15.90;33.00
24217;DHT22;12356;49.386;8.688;2023-08-08T02:08:49;15.90;31.70
24217;DHT22;12356;49.386;8.688;2023-08-08T02:11:20;15.80;31.80
24217;DHT22;12356;49.386;8.688;2023-08-08T02:13:52;15.70;32.50
24217;DHT22;12356;49.386;8.688;2023-08-08T02:16:22;15.70;32.50
24217;DHT22;12356;49.386;8.688;2023-08-08T02:18:53;15.70;33.10
24217;DHT22;12356;49.386;8.688;2023-08-08T02:21:23;15.70;33.50
24217;DHT22;12356;49.386;8.688;2023-08-08T02:23:54;15.60;32.90
24217;DHT22;12356;49.386;8.688;2023-08-08T02:26:25;15.70;33.70
24217;DHT22;12356;49.386;8.688;2023-08-08T02:28:55;15.60;34.20
24217;DHT22;12356;49.386;8.688;2023-08-08T02:31:26;15.60;34.40
24217;DHT22;12356;49.386;8.688;2023-08-08T02:33:56;15.70;34.50
24217;DHT22;12356;49.386;8.688;2023-08-08T02:36:27;15.60;34.20
24217;DHT22;12356;49.386;8.688;2023-08-08T02:38:57;15.60;34.00
24217;DHT22;12356;49.386;8.688;2023-08-08T02:41:28;15.70;34.90
24217;DHT22;12356;49.386;8.688;2023-08-08T02:43:59;15.60;33.80
24217;DHT22;12356;49.386;8.688;2023-08-08T02:46:29;15.70;34.60
24217;DHT22;12356;49.386;8.688;2023-08-08T02:49:00;15.60;34.20
24217;DHT22;12356;49.386;8.688;2023-08-08T02:51:30;15.60;34.60
24217;DHT22;12356;49.386;8.688;2023-08-08T02:54:01;15.60;35.00
24217;DHT22;12356;49.386;8.688;2023-08-08T02:56:31;15.50;34.90
24217;DHT22;12356;49.386;8.688;2023-08-08T02:59:02;15.60;35.50
24217;DHT22;12356;49.386;8.688;2023-08-08T03:01:33;15.60;35.40
24217;DHT22;12356;49.386;8.688;2023-08-08T03:04:08;15.50;35.30
24217;DHT22;12356;49.386;8.688;2023-08-08T03:06:38;15.60;36.10
24217;DHT22;12356;49.386;8.688;2023-08-08T03:09:09;15.60;35.80
24217;DHT22;12356;49.386;8.688;2023-08-08T03:11:40;15.60;35.40
24217;DHT22;12356;49.386;8.688;2023-08-08T03:14:12;15.60;35.90
24217;DHT22;12356;49.386;8.688;2023-08-08T03:16:42;15.60;36.90
24217;DHT22;12356;49.386;8.688;2023-08-08T03:19:13;15.60;36.10
24217;DHT22;12356;49.386;8.688;2023-08-08T03:21:43;15.60;35.70
24217;DHT22;12356;49.386;8.688;2023-08-08T03:24:14;15.60;35.70
24217;DHT22;12356;49.386;8.688;2023-08-08T03:26:44;15.60;35.90
24217;DHT22;12356;49.386;8.688;2023-08-08T03:29:15;15.60;35.50
24217;DHT22;12356;49.386;8.688;2023-08-08T03:31:46;15.50;35.30
24217;DHT22;12356;49.386;8.688;2023-08-08T03:34:16;15.60;35.40
24217;DHT22;12356;49.386;8.688;2023-08-08T03:36:47;15.60;34.80
24217;DHT22;12356;49.386;8.688;2023-08-08T03:39:17;15.60;35.50
24217;DHT22;12356;49.386;8.688;2023-08-08T03:41:48;15.60;35.70
24217;DHT22;12356;49.386;8.688;2023-08-08T03:44:18;15.60;35.90
24217;DHT22;12356;49.386;8.688;2023-08-08T03:46:49;15.60;36.10
24217;DHT22;12356;49.386;8.688;2023-08-08T03:49:21;15.60;34.90
24217;DHT22;12356;49.386;8.688;2023-08-08T03:51:51;15.60;35.10
24217;DHT22;12356;49.386;8.688;2023-08-08T03:54:22;15.60;34.40
24217;DHT22;12356;49.386;8.688;2023-08-08T03:56:52;15.60;34.80
24217;DHT22;12356;49.386;8.688;2023-08-08T03:59:23;15.60;34.70
24217;DHT22;12356;49.386;8.688;2023-08-08T04:01:53;15.60;35.10
24217;DHT22;12356;49.386;8.688;2023-08-08T04:04:24;15.60;34.60
24217;DHT22;12356;49.386;8.688;2023-08-08T04:06:54;15.50;34.00
24217;DHT22;12356;49.386;8.688;2023-08-08T04:09:25;15.40;35.10
24217;DHT22;12356;49.386;8.688;2023-08-08T04:11:55;15.50;34.90
24217;DHT22;12356;49.386;8.688;2023-08-08T04:14:26;15.50;35.50
24217;DHT22;12356;49.386;8.688;2023-08-08T04:16:56;15.50;35.10
24217;DHT22;12356;49.386;8.688;2023-08-08T04:19:27;15.40;35.00
24217;DHT22;12356;49.386;8.688;2023-08-08T04:21:58;15.50;35.10
24217;DHT22;12356;49.386;8.688;2023-08-08T04:24:28;15.50;35.20
24217;DHT22;12356;49.386;8.688;2023-08-08T04:26:59;15.50;35.40
24217;DHT22;12356;49.386;8.688;2023-08-08T04:29:29;15.40;35.60
24217;DHT22;12356;49.386;8.688;2023-08-08T04:32:00;15.30;35.60
24217;DHT22;12356;49.386;8.688;2023-08-08T04:34:30;15.30;35.90
24217;DHT22;12356;49.386;8.688;2023-08-08T04:37:01;15.40;37.00
24217;DHT22;12356;49.386;8.688;2023-08-08T04:39:31;15.40;35.90
24217;DHT22;12356;49.386;8.688;2023-08-08T04:42:02;15.40;36.50
24217;DHT22;12356;49.386;8.688;2023-08-08T04:44:33;15.30;36.50
24217;DHT22;12356;49.386;8.688;2023-08-08T04:47:04;15.30;36.60
24217;DHT22;12356;49.386;8.688;2023-08-08T04:49:34;15.30;36.50
24217;DHT22;12356;49.386;8.688;2023-08-08T04:52:05;15.30;36.50
24217;DHT22;12356;49.386;8.688;2023-08-08T04:54:36;15.30;36.60
24217;DHT22;12356;49.386;8.688;2023-08-08T04:57:06;15.30;37.30
24217;DHT22;12356;49.386;8.688;2023-08-08T04:59:37;15.30;37.40
24217;DHT22;12356;49.386;8.688;2023-08-08T05:02:08;15.30;36.70
24217;DHT22;12356;49.386;8.688;2023-08-08T05:04:38;15.30;36.90
24217;DHT22;12356;49.386;8.688;2023-08-08T05:07:09;15.30;37.70
24217;DHT22;12356;49.386;8.688;2023-08-08T05:09:39;15.30;38.00
24217;DHT22;12356;49.386;8.688;2023-08-08T05:12:10;15.40;37.90
24217;DHT22;12356;49.386;8.688;2023-08-08T05:14:41;15.40;37.80
24217;DHT22;12356;49.386;8.688;2023-08-08T05:17:12;15.40;37.80
24217;DHT22;12356;49.386;8.688;2023-08-08T05:19:42;15.30;37.60
24217;DHT22;12356;49.386;8.688;2023-08-08T05:22:13;15.30;37.70
24217;DHT22;12356;49.386;8.688;2023-08-08T05:24:43;15.30;38.10
24217;DHT22;12356;49.386;8.688;2023-08-08T05:27:14;15.30;38.10
24217;DHT22;12356;49.386;8.688;2023-08-08T05:29:44;15.30;37.80
24217;DHT22;12356;49.386;8.688;2023-08-08T05:32:15;15.30;37.90
24217;DHT22;12356;49.386;8.688;2023-08-08T05:34:45;15.40;38.20
24217;DHT22;12356;49.386;8.688;2023-08-08T05:37:16;15.30;37.90
24217;DHT22;12356;49.386;8.688;2023-08-08T05:39:46;15.30;38.20
24217;DHT22;12356;49.386;8.688;2023-08-08T05:42:17;15.40;38.80
24217;DHT22;12356;49.386;8.688;2023-08-08T05:44:47;15.40;38.50
24217;DHT22;12356;49.386;8.688;2023-08-08T05:47:18;15.40;38.30
24217;DHT22;12356;49.386;8.688;2023-08-08T05:49:49;15.40;38.10
24217;DHT22;12356;49.386;8.688;2023-08-08T05:52:20;15.30;38.30
24217;DHT22;12356;49.386;8.688;2023-08-08T05:54:51;15.30;38.40
24217;DHT22;12356;49.386;8.688;2023-08-08T05:57:22;15.20;38.20
24217;DHT22;12356;49.386;8.688;2023-08-08T05:59:52;15.20;38.20
24217;DHT22;12356;49.386;8.688;2023-08-08T06:02:23;15.20;38.30
24217;DHT22;12356;49.386;8.688;2023-08-08T06:04:53;15.20;38.70
24217;DHT22;12356;49.386;8.688;2023-08-08T06:07:24;15.20;38.60
24217;DHT22;12356;49.386;8.688;2023-08-08T06:09:55;15.30;39.00
24217;DHT22;12356;49.386;8.688;2023-08-08T06:12:25;15.30;38.10
24217;DHT22;12356;49.386;8.688;2023-08-08T06:14:56;15.40;38.90
24217;DHT22;12356;49.386;8.688;2023-08-08T06:17:26;15.50;39.60
24217;DHT22;12356;49.386;8.688;2023-08-08T06:19:57;15.40;38.60
24217;DHT22;12356;49.386;8.688;2023-08-08T06:22:27;15.50;39.40
24217;DHT22;12356;49.386;8.688;2023-08-08T06:24:58;15.60;38.90
24217;DHT22;12356;49.386;8.688;2023-08-08T06:27:28;15.60;39.20
24217;DHT22;12356;49.386;8.688;2023-08-08T06:29:59;15.60;38.20
24217;DHT22;12356;49.386;8.688;2023-08-08T06:32:29;15.60;38.30
24217;DHT22;12356;49.386;8.688;2023-08-08T06:35:00;15.70;38.80
24217;DHT22;12356;49.386;8.688;2023-08-08T06:37:30;15.80;39.20
24217;DHT22;12356;49.386;8.688;2023-08-08T06:40:01;15.90;39.50
24217;DHT22;12356;49.386;8.688;2023-08-08T06:42:32;15.90;39.80
24217;DHT22;12356;49.386;8.688;2023-08-08T06:45:02;15.90;39.90
24217;DHT22;12356;49.386;8.688;2023-08-08T06:47:33;15.90;39.20
24217;DHT22;12356;49.386;8.688;2023-08-08T06:50:04;16.00;39.90
24217;DHT22;12356;49.386;8.688;2023-08-08T06:52:35;16.10;39.20
24217;DHT22;12356;49.386;8.688;2023-08-08T06:55:06;16.00;37.30
24217;DHT22;12356;49.386;8.688;2023-08-08T06:57:37;16.20;37.60
24217;DHT22;12356;49.386;8.688;2023-08-08T07:00:08;16.20;37.70
24217;DHT22;12356;49.386;8.688;2023-08-08T07:02:39;16.30;39.10
24217;DHT22;12356;49.386;8.688;2023-08-08T07:05:09;16.30;37.60
24217;DHT22;12356;49.386;8.688;2023-08-08T07:07:40;16.30;34.30
24217;DHT22;12356;49.386;8.688;2023-08-08T07:10:11;16.30;35.20
24217;DHT22;12356;49.386;8.688;2023-08-08T07:12:43;16.40;32.10
24217;DHT22;12356;49.386;8.688;2023-08-08T07:15:13;16.50;29.60
24217;DHT22;12356;49.386;8.688;2023-08-08T07:17:44;16.60;29.90
24217;DHT22;12356;49.386;8.688;2023-08-08T07:20:15;16.70;29.70
24217;DHT22;12356;49.386;8.688;2023-08-08T07:22:46;16.80;29.40
24217;DHT22;12356;49.386;8.688;2023-08-08T07:25:16;16.90;29.10
24217;DHT22;12356;49.386;8.688;2023-08-08T07:27:47;17.00;26.70
24217;DHT22;12356;49.386;8.688;2023-08-08T07:30:17;17.20;26.70
24217;DHT22;12356;49.386;8.688;2023-08-08T07:32:48;17.20;24.00
24217;DHT22;12356;49.386;8.688;2023-08-08T07:35:18;17.30;24.60
24217;DHT22;12356;49.386;8.688;2023-08-08T07:37:49;17.40;23.70
24217;DHT22;12356;49.386;8.688;2023-08-08T07:40:20;17.60;23.80
24217;DHT22;12356;49.386;8.688;2023-08-08T07:42:51;17.60;24.10
24217;DHT22;12356;49.386;8.688;2023-08-08T07:45:22;17.70;24.00
24217;DHT22;12356;49.386;8.688;2023-08-08T07:47:53;17.80;20.90
24217;DHT22;12356;49.386;8.688;2023-08-08T07:50:23;17.80;19.80
24217;DHT22;12356;49.386;8.688;2023-08-08T07:52:54;17.90;20.90
24217;DHT22;12356;49.386;8.688;2023-08-08T07:55:24;18.00;21.10
24217;DHT22;12356;49.386;8.688;2023-08-08T07:57:55;18.00;19.90
24217;DHT22;12356;49.386;8.688;2023-08-08T08:00:25;18.10;20.10
24217;DHT22;12356;49.386;8.688;2023-08-08T08:02:56;18.20;18.90
24217;DHT22;12356;49.386;8.688;2023-08-08T08:05:27;18.20;17.50
24217;DHT22;12356;49.386;8.688;2023-08-08T08:07:57;18.30;17.40
24217;DHT22;12356;49.386;8.688;2023-08-08T08:10:28;18.30;17.40
24217;DHT22;12356;49.386;8.688;2023-08-08T08:12:59;18.40;16.60
24217;DHT22;12356;49.386;8.688;2023-08-08T08:15:29;18.40;16.90
24217;DHT22;12356;49.386;8.688;2023-08-08T08:18:01;18.40;17.20
24217;DHT22;12356;49.386;8.688;2023-08-08T08:20:31;18.40;18.10
24217;DHT22;12356;49.386;8.688;2023-08-08T08:23:02;18.50;17.20
24217;DHT22;12356;49.386;8.688;2023-08-08T08:25:33;18.50;13.00
24217;DHT22;12356;49.386;8.688;2023-08-08T08:28:03;18.40;13.20
24217;DHT22;12356;49.386;8.688;2023-08-08T08:30:34;18.40;13.50
24217;DHT22;12356;49.386;8.688;2023-08-08T08:33:07;18.40;10.40
24217;DHT22;12356;49.386;8.688;2023-08-08T08:35:38;18.40;12.90
24217;DHT22;12356;49.386;8.688;2023-08-08T08:38:08;18.40;12.40
24217;DHT22;12356;49.386;8.688;2023-08-08T08:40:40;18.40;15.10
24217;DHT22;12356;49.386;8.688;2023-08-08T08:43:11;18.40;15.90
24217;DHT22;12356;49.386;8.688;2023-08-08T08:45:43;18.40;14.40
24217;DHT22;12356;49.386;8.688;2023-08-08T08:48:21;18.50;11.20
24217;DHT22;12356;49.386;8.688;2023-08-08T08:50:52;18.50;11.60
24217;DHT22;12356;49.386;8.688;2023-08-08T08:53:23;18.50;9.60
24217;DHT22;12356;49.386;8.688;2023-08-08T08:55:53;18.50;8.20
24217;DHT22;12356;49.386;8.688;2023-08-08T08:58:25;18.50;9.90
24217;DHT22;12356;49.386;8.688;2023-08-08T09:00:57;18.60;8.90
24217;DHT22;12356;49.386;8.688;2023-08-08T09:03:28;18.70;10.70
24217;DHT22;12356;49.386;8.688;2023-08-08T09:05:59;18.70;10.40
24217;DHT22;12356;49.386;8.688;2023-08-08T09:08:30;18.70;6.80
24217;DHT22;12356;49.386;8.688;2023-08-08T09:11:00;18.80;7.80
24217;DHT22;12356;49.386;8.688;2023-08-08T09:13:38;18.80;8.20
24217;DHT22;12356;49.386;8.688;2023-08-08T09:16:10;18.90;10.80
24217;DHT22;12356;49.386;8.688;2023-08-08T09:18:42;18.90;8.90
24217;DHT22;12356;49.386;8.688;2023-08-08T09:21:13;19.00;9.60
24217;DHT22;12356;49.386;8.688;2023-08-08T09:23:43;19.00;9.40
24217;DHT22;12356;49.386;8.688;2023-08-08T09:26:14;19.00;5.40
24217;DHT22;12356;49.386;8.688;2023-08-08T09:28:46;19.00;6.40
24217;DHT22;12356;49.386;8.688;2023-08-08T09:31:17;19.10;8.40
24217;DHT22;12356;49.386;8.688;2023-08-08T09:33:48;19.10;8.70
24217;DHT22;12356;49.386;8.688;2023-08-08T09:36:19;19.10;7.10
24217;DHT22;12356;49.386;8.688;2023-08-08T09:38:49;19.10;8.00
24217;DHT22;12356;49.386;8.688;2023-08-08T09:41:21;19.00;3.20
24217;DHT22;12356;49.386;8.688;2023-08-08T09:43:53;19.00;1.30
24217;DHT22;12356;49.386;8.688;2023-08-08T09:46:24;19.00;2.40
24217;DHT22;12356;49.386;8.688;2023-08-08T09:48:55;19.10;4.70
24217;DHT22;12356;49.386;8.688;2023-08-08T09:51:26;19.20;3.30
24217;DHT22;12356;49.386;8.688;2023-08-08T09:53:58;19.20;1.40
24217;DHT22;12356;49.386;8.688;2023-08-08T09:56:28;19.30;3.30
24217;DHT22;12356;49.386;8.688;2023-08-08T09:59:01;19.40;2.50
24217;DHT22;12356;49.386;8.688;2023-08-08T10:01:32;19.40;1.00
24217;DHT22;12356;49.386;8.688;2023-08-08T10:04:03;19.40;1.00
24217;DHT22;12356;49.386;8.688;2023-08-08T10:06:34;19.40;1.00
24217;DHT22;12356;49.386;8.688;2023-08-08T10:09:04;19.40;1.00
24217;DHT22;12356;49.386;8.688;2023-08-08T10:11:35;19.50;1.60
24217;DHT22;12356;49.386;8.688;2023-08-08T10:14:06;19.50;2.00
24217;DHT22;12356;49.386;8.688;2023-08-08T10:16:42;19.50;1.80
24217;DHT22;12356;49.386;8.688;2023-08-08T10:19:21;19.60;1.90
24217;DHT22;12356;49.386;8.688;2023-08-08T10:22:03;19.60;1.00
24217;DHT22;12356;49.386;8.688;2023-08-08T10:24:35;19.70;1.10
24217;DHT22;12356;49.386;8.688;2023-08-08T10:27:05;19.60;1.00
24217;DHT22;12356;49.386;8.688;2023-08-08T10:29:38;19.70;1.00
24217;DHT22;12356;49.386;8.688;2023-08-08T10:32:08;19.70;1.00
24217;DHT22;12356;49.386;8.688;2023-08-08T10:34:43;19.80;1.70
24217;DHT22;12356;49.386;8.688;2023-08-08T10:37:16;19.80;1.00
24217;DHT22;12356;49.386;8.688;2023-08-08T10:39:54;19.90;1.00
24217;DHT22;12356;49.386;8.688;2023-08-08T10:42:27;19.80;1.00
24217;DHT22;12356;49.386;8.688;2023-08-08T10:45:01;19.90;1.00
24217;DHT22;12356;49.386;8.688;2023-08-08T10:47:36;19.90;1.00
24217;DHT22;12356;49.386;8.688;2023-08-08T10:50:15;19.90;1.00
24217;DHT22;12356;49.386;8.688;2023-08-08T10:52:53;19.90;1.00
24217;DHT22;12356;49.386;8.688;2023-08-08T10:55:31;19.90;1.00
24217;DHT22;12356;49.386;8.688;2023-08-08T10:58:06;20.00;1.00
24217;DHT22;12356;49.386;8.688;2023-08-08T11:00:38;20.10;1.00
24217;DHT22;12356;49.386;8.688;2023-08-08T11:03:11;20.10;1.00
24217;DHT22;12356;49.386;8.688;2023-08-08T11:05:45;20.20;1.00
24217;DHT22;12356;49.386;8.688;2023-08-08T11:08:17;20.20;1.00
24217;DHT22;12356;49.386;8.688;2023-08-08T11:10:51;20.20;1.00
24217;DHT22;12356;49.386;8.688;2023-08-08T11:13:22;20.20;1.00
24217;DHT22;12356;49.386;8.688;2023-08-08T11:15:53;20.20;1.00
24217;DHT22;12356;49.386;8.688;2023-08-08T11:18:24;20.20;1.00
24217;DHT22;12356;49.386;8.688;2023-08-08T11:20:55;20.20;1.00
24217;DHT22;12356;49.386;8.688;2023-08-08T11:23:26;20.20;1.00
24217;DHT22;12356;49.386;8.688;2023-08-08T11:25:57;20.20;1.00
24217;DHT22;12356;49.386;8.688;2023-08-08T11:28:28;20.30;1.00
24217;DHT22;12356;49.386;8.688;2023-08-08T11:30:59;20.20;1.00
24217;DHT22;12356;49.386;8.688;2023-08-08T11:33:29;20.20;1.00
24217;DHT22;12356;49.386;8.688;2023-08-08T11:36:01;20.20;1.00
24217;DHT22;12356;49.386;8.688;2023-08-08T11:38:32;20.20;1.00
24217;DHT22;12356;49.386;8.688;2023-08-08T11:41:03;20.30;1.00
24217;DHT22;12356;49.386;8.688;2023-08-08T11:43:34;20.30;1.00
24217;DHT22;12356;49.386;8.688;2023-08-08T11:46:09;20.30;1.00
24217;DHT22;12356;49.386;8.688;2023-08-08T11:48:40;20.30;1.00
24217;DHT22;12356;49.386;8.688;2023-08-08T11:51:11;20.40;1.00
24217;DHT22;12356;49.386;8.688;2023-08-08T11:53:51;20.40;1.00
24217;DHT22;12356;49.386;8.688;2023-08-08T11:56:23;20.40;1.00
24217;DHT22;12356;49.386;8.688;2023-08-08T11:58:55;20.40;1.00
24217;DHT22;12356;49.386;8.688;2023-08-08T12:01:26;20.50;1.00
24217;DHT22;12356;49.386;8.688;2023-08-08T12:03:57;20.50;1.00
24217;DHT22;12356;49.386;8.688;2023-08-08T12:06:28;20.50;1.00
24217;DHT22;12356;49.386;8.688;2023-08-08T12:09:01;20.60;1.00
24217;DHT22;12356;49.386;8.688;2023-08-08T12:11:36;20.60;1.00
24217;DHT22;12356;49.386;8.688;2023-08-08T12:14:10;20.70;1.00
24217;DHT22;12356;49.386;8.688;2023-08-08T12:16:42;20.80;1.00
24217;DHT22;12356;49.386;8.688;2023-08-08T12:19:14;20.70;1.00
24217;DHT22;12356;49.386;8.688;2023-08-08T12:21:48;20.80;1.00
24217;DHT22;12356;49.386;8.688;2023-08-08T12:24:18;20.80;1.00
24217;DHT22;12356;49.386;8.688;2023-08-08T12:26:49;20.80;1.00
24217;DHT22;12356;49.386;8.688;2023-08-08T12:29:19;20.80;1.00
24217;DHT22;12356;49.386;8.688;2023-08-08T12:31:50;20.80;1.00
24217;DHT22;12356;49.386;8.688;2023-08-08T12:34:20;20.90;1.00
24217;DHT22;12356;49.386;8.688;2023-08-08T12:36:51;20.90;1.00
24217;DHT22;12356;49.386;8.688;2023-08-08T12:39:22;21.00;1.00
24217;DHT22;12356;49.386;8.688;2023-08-08T12:41:52;21.10;1.00
24217;DHT22;12356;49.386;8.688;2023-08-08T12:44:23;21.20;1.00
24217;DHT22;12356;49.386;8.688;2023-08-08T12:46:54;21.20;1.00
24217;DHT22;12356;49.386;8.688;2023-08-08T12:49:24;21.30;1.00
24217;DHT22;12356;49.386;8.688;2023-08-08T12:51:55;21.30;1.00
24217;DHT22;12356;49.386;8.688;2023-08-08T12:54:26;21.30;1.00
24217;DHT22;12356;49.386;8.688;2023-08-08T12:56:56;21.20;1.00
24217;DHT22;12356;49.386;8.688;2023-08-08T12:59:27;21.20;1.00
24217;DHT22;12356;49.386;8.688;2023-08-08T13:01:58;21.10;1.00
24217;DHT22;12356;49.386;8.688;2023-08-08T13:04:28;21.20;1.00
24217;DHT22;12356;49.386;8.688;2023-08-08T13:06:59;21.20;1.00
24217;DHT22;12356;49.386;8.688;2023-08-08T13:09:30;21.10;1.00
24217;DHT22;12356;49.386;8.688;2023-08-08T13:12:00;21.20;1.00
24217;DHT22;12356;49.386;8.688;2023-08-08T13:14:31;21.20;1.00
24217;DHT22;12356;49.386;8.688;2023-08-08T13:17:01;21.20;1.00
24217;DHT22;12356;49.386;8.688;2023-08-08T13:19:32;21.30;1.00
24217;DHT22;12356;49.386;8.688;2023-08-08T13:22:03;21.30;1.00
24217;DHT22;12356;49.386;8.688;2023-08-08T13:24:34;21.30;1.00
24217;DHT22;12356;49.386;8.688;2023-08-08T13:27:04;21.20;1.00
24217;DHT22;12356;49.386;8.688;2023-08-08T13:29:35;21.20;1.00
24217;DHT22;12356;49.386;8.688;2023-08-08T13:32:05;21.10;1.00
24217;DHT22;12356;49.386;8.688;2023-08-08T13:34:36;21.10;1.00
24217;DHT22;12356;49.386;8.688;2023-08-08T13:37:06;21.10;1.00
24217;DHT22;12356;49.386;8.688;2023-08-08T13:39:37;21.10;1.00
24217;DHT22;12356;49.386;8.688;2023-08-08T13:42:11;21.10;1.00
24217;DHT22;12356;49.386;8.688;2023-08-08T13:44:41;21.10;1.00
24217;DHT22;12356;49.386;8.688;2023-08-08T13:47:12;21.10;1.00
24217;DHT22;12356;49.386;8.688;2023-08-08T13:49:42;21.20;1.00
24217;DHT22;12356;49.386;8.688;2023-08-08T13:52:13;21.20;1.00
24217;DHT22;12356;49.386;8.688;2023-08-08T13:54:43;21.20;1.00
24217;DHT22;12356;49.386;8.688;2023-08-08T13:57:14;21.20;1.00
24217;DHT22;12356;49.386;8.688;2023-08-08T13:59:44;21.20;1.00
24217;DHT22;12356;49.386;8.688;2023-08-08T14:02:15;21.20;1.00
24217;DHT22;12356;49.386;8.688;2023-08-08T14:04:48;21.30;1.00
24217;DHT22;12356;49.386;8.688;2023-08-08T14:07:18;21.40;1.00
24217;DHT22;12356;49.386;8.688;2023-08-08T14:09:49;21.40;1.00
24217;DHT22;12356;49.386;8.688;2023-08-08T14:12:20;21.40;1.00
24217;DHT22;12356;49.386;8.688;2023-08-08T14:14:50;21.40;1.00
24217;DHT22;12356;49.386;8.688;2023-08-08T14:17:21;21.30;1.00
24217;DHT22;12356;49.386;8.688;2023-08-08T14:19:52;21.30;1.00
24217;DHT22;12356;49.386;8.688;2023-08-08T14:22:23;21.30;1.00
24217;DHT22;12356;49.386;8.688;2023-08-08T14:24:53;21.20;1.00
24217;DHT22;12356;49.386;8.688;2023-08-08T14:27:24;21.20;1.00
24217;DHT22;12356;49.386;8.688;2023-08-08T14:29:54;21.20;1.00
24217;DHT22;12356;49.386;8.688;2023-08-08T14:32:25;21.10;1.00
24217;DHT22;12356;49.386;8.688;2023-08-08T14:34:55;21.20;1.00
24217;DHT22;12356;49.386;8.688;2023-08-08T14:37:26;21.20;1.00
24217;DHT22;12356;49.386;8.688;2023-08-08T14:39:57;21.30;1.00
24217;DHT22;12356;49.386;8.688;2023-08-08T14:42:27;21.30;1.00
24217;DHT22;12356;49.386;8.688;2023-08-08T14:44:58;21.30;1.00
24217;DHT22;12356;49.386;8.688;2023-08-08T14:47:28;21.40;1.00
24217;DHT22;12356;49.386;8.688;2023-08-08T14:49:59;21.40;1.00
24217;DHT22;12356;49.386;8.688;2023-08-08T14:52:29;21.50;1.00
24217;DHT22;12356;49.386;8.688;2023-08-08T14:55:01;21.40;1.00
24217;DHT22;12356;49.386;8.688;2023-08-08T14:57:31;21.40;1.00
24217;DHT22;12356;49.386;8.688;2023-08-08T15:00:03;21.30;1.00
24217;DHT22;12356;49.386;8.688;2023-08-08T15:02:35;21.30;1.00
24217;DHT22;12356;49.386;8.688;2023-08-08T15:05:05;21.20;1.00
24217;DHT22;12356;49.386;8.688;2023-08-08T15:07:36;21.20;1.00
24217;DHT22;12356;49.386;8.688;2023-08-08T15:10:07;21.20;1.00
24217;DHT22;12356;49.386;8.688;2023-08-08T15:12:38;21.20;1.00
24217;DHT22;12356;49.386;8.688;2023-08-08T15:15:11;21.10;1.00
24217;DHT22;12356;49.386;8.688;2023-08-08T15:17:42;21.00;1.00
24217;DHT22;12356;49.386;8.688;2023-08-08T15:20:12;21.00;1.00
24217;DHT22;12356;49.386;8.688;2023-08-08T15:22:43;21.00;1.00
24217;DHT22;12356;49.386;8.688;2023-08-08T15:25:13;21.00;1.00
24217;DHT22;12356;49.386;8.688;2023-08-08T15:27:44;20.90;1.00
24217;DHT22;12356;49.386;8.688;2023-08-08T15:30:15;20.90;1.00
24217;DHT22;12356;49.386;8.688;2023-08-08T15:32:46;20.80;1.00
24217;DHT22;12356;49.386;8.688;2023-08-08T15:35:16;20.80;1.00
24217;DHT22;12356;49.386;8.688;2023-08-08T15:37:47;20.80;1.00
24217;DHT22;12356;49.386;8.688;2023-08-08T15:40:17;20.80;1.00
24217;DHT22;12356;49.386;8.688;2023-08-08T15:42:48;20.80;1.00
24217;DHT22;12356;49.386;8.688;2023-08-08T15:45:18;20.80;1.00
24217;DHT22;12356;49.386;8.688;2023-08-08T15:47:49;20.80;1.00
24217;DHT22;12356;49.386;8.688;2023-08-08T15:50:21;20.80;1.00
24217;DHT22;12356;49.386;8.688;2023-08-08T15:52:52;20.80;1.00
24217;DHT22;12356;49.386;8.688;2023-08-08T15:55:26;20.70;1.00
24217;DHT22;12356;49.386;8.688;2023-08-08T15:57:57;20.80;1.00
24217;DHT22;12356;49.386;8.688;2023-08-08T16:00:27;20.80;1.00
24217;DHT22;12356;49.386;8.688;2023-08-08T16:02:58;20.80;1.00